< < Back
Terminal Aerodrome Forecast


Current Version              Previous Versions:   1  2  3  4  5  6  7  8  9  

Terminal Aerodrome Forecast

788
FTUS44 KBMX 201100
TAFBHM
TAF
KBHM 201135Z 2012/2112 07007KT P6SM SKC
     FM210300 13002KT P6SM SKC=

Latest METAR

810
SAUS70 KWBC 201600 RRC
MTRBHM
METAR KBHM 201553Z 08013G20KT 10SM FEW250 21/03 A3025 RMK AO2 SLP240
T02110033


USA.gov is the U.S. government's official web portal to all federal, state and local government web resources and services.